sensor_id;sensor_type;location;lat;lon;timestamp;P1;durP1;ratioP1;P2;durP2;ratioP2
64854;SDS011;51321;50.428;8.378;2023-04-10T00:00:00;7.55;;;6.00;;
64854;SDS011;51321;50.428;8.378;2023-04-10T00:02:43;7.95;;;6.07;;
64854;SDS011;51321;50.428;8.378;2023-04-10T00:05:25;8.00;;;6.07;;
64854;SDS011;51321;50.428;8.378;2023-04-10T00:08:05;6.43;;;5.50;;
64854;SDS011;51321;50.428;8.378;2023-04-10T00:10:47;7.47;;;5.38;;
64854;SDS011;51321;50.428;8.378;2023-04-10T00:13:28;7.70;;;5.63;;
64854;SDS011;51321;50.428;8.378;2023-04-10T00:16:11;8.70;;;6.20;;
64854;SDS011;51321;50.428;8.378;2023-04-10T00:18:52;7.28;;;5.88;;
64854;SDS011;51321;50.428;8.378;2023-04-10T00:21:33;6.05;;;5.38;;
64854;SDS011;51321;50.428;8.378;2023-04-10T00:24:14;8.35;;;5.53;;
64854;SDS011;51321;50.428;8.378;2023-04-10T00:26:55;7.10;;;5.00;;
64854;SDS011;51321;50.428;8.378;2023-04-10T00:29:36;8.27;;;5.25;;
64854;SDS011;51321;50.428;8.378;2023-04-10T00:32:18;8.38;;;5.80;;
64854;SDS011;51321;50.428;8.378;2023-04-10T00:34:59;9.00;;;5.43;;
64854;SDS011;51321;50.428;8.378;2023-04-10T00:37:40;7.25;;;5.25;;
64854;SDS011;51321;50.428;8.378;2023-04-10T00:40:21;9.43;;;5.55;;
64854;SDS011;51321;50.428;8.378;2023-04-10T00:43:03;6.32;;;4.95;;
64854;SDS011;51321;50.428;8.378;2023-04-10T00:45:44;6.80;;;5.18;;
64854;SDS011;51321;50.428;8.378;2023-04-10T00:48:27;7.20;;;5.43;;
64854;SDS011;51321;50.428;8.378;2023-04-10T00:53:51;5.60;;;4.57;;
64854;SDS011;51321;50.428;8.378;2023-04-10T00:56:32;6.38;;;5.15;;
64854;SDS011;51321;50.428;8.378;2023-04-10T00:59:14;7.60;;;5.15;;
64854;SDS011;51321;50.428;8.378;2023-04-10T01:01:55;7.88;;;5.18;;
64854;SDS011;51321;50.428;8.378;2023-04-10T01:04:39;7.97;;;5.63;;
64854;SDS011;51321;50.428;8.378;2023-04-10T01:07:24;7.85;;;5.32;;
64854;SDS011;51321;50.428;8.378;2023-04-10T01:10:14;6.35;;;4.70;;
64854;SDS011;51321;50.428;8.378;2023-04-10T01:13:02;7.05;;;5.38;;
64854;SDS011;51321;50.428;8.378;2023-04-10T01:15:58;6.60;;;4.95;;
64854;SDS011;51321;50.428;8.378;2023-04-10T01:18:47;6.32;;;4.88;;
64854;SDS011;51321;50.428;8.378;2023-04-10T01:21:35;6.22;;;4.60;;
64854;SDS011;51321;50.428;8.378;2023-04-10T01:24:20;10.77;;;5.03;;
64854;SDS011;51321;50.428;8.378;2023-04-10T01:27:18;6.00;;;4.95;;
64854;SDS011;51321;50.428;8.378;2023-04-10T01:30:13;9.15;;;4.88;;
64854;SDS011;51321;50.428;8.378;2023-04-10T01:32:59;6.90;;;5.20;;
64854;SDS011;51321;50.428;8.378;2023-04-10T01:35:43;6.43;;;4.93;;
64854;SDS011;51321;50.428;8.378;2023-04-10T01:38:28;8.43;;;6.07;;
64854;SDS011;51321;50.428;8.378;2023-04-10T01:41:12;7.53;;;5.75;;
64854;SDS011;51321;50.428;8.378;2023-04-10T01:43:54;6.97;;;5.10;;
64854;SDS011;51321;50.428;8.378;2023-04-10T01:49:20;6.18;;;4.43;;
64854;SDS011;51321;50.428;8.378;2023-04-10T01:52:02;6.75;;;5.38;;
64854;SDS011;51321;50.428;8.378;2023-04-10T01:54:46;6.88;;;5.07;;
64854;SDS011;51321;50.428;8.378;2023-04-10T01:57:34;8.15;;;5.45;;
64854;SDS011;51321;50.428;8.378;2023-04-10T02:00:16;9.15;;;5.22;;
64854;SDS011;51321;50.428;8.378;2023-04-10T02:02:59;11.40;;;5.67;;
64854;SDS011;51321;50.428;8.378;2023-04-10T02:05:45;6.05;;;4.93;;
64854;SDS011;51321;50.428;8.378;2023-04-10T02:08:34;6.75;;;4.97;;
64854;SDS011;51321;50.428;8.378;2023-04-10T02:11:21;6.35;;;4.68;;
64854;SDS011;51321;50.428;8.378;2023-04-10T02:14:11;6.40;;;5.15;;
64854;SDS011;51321;50.428;8.378;2023-04-10T02:16:56;8.23;;;5.78;;
64854;SDS011;51321;50.428;8.378;2023-04-10T02:19:41;7.78;;;5.45;;
64854;SDS011;51321;50.428;8.378;2023-04-10T02:22:26;5.90;;;4.72;;
64854;SDS011;51321;50.428;8.378;2023-04-10T02:25:08;7.88;;;6.43;;
64854;SDS011;51321;50.428;8.378;2023-04-10T02:30:31;6.78;;;5.53;;
64854;SDS011;51321;50.428;8.378;2023-04-10T02:33:13;8.30;;;5.68;;
64854;SDS011;51321;50.428;8.378;2023-04-10T02:35:56;6.72;;;5.43;;
64854;SDS011;51321;50.428;8.378;2023-04-10T02:38:36;7.60;;;5.07;;
64854;SDS011;51321;50.428;8.378;2023-04-10T02:41:17;7.32;;;5.30;;
64854;SDS011;51321;50.428;8.378;2023-04-10T02:43:59;6.90;;;5.18;;
64854;SDS011;51321;50.428;8.378;2023-04-10T02:46:41;7.28;;;6.00;;
64854;SDS011;51321;50.428;8.378;2023-04-10T02:49:23;10.43;;;5.75;;
64854;SDS011;51321;50.428;8.378;2023-04-10T02:52:06;7.75;;;5.57;;
64854;SDS011;51321;50.428;8.378;2023-04-10T02:54:48;8.35;;;5.70;;
64854;SDS011;51321;50.428;8.378;2023-04-10T02:57:29;8.37;;;5.37;;
64854;SDS011;51321;50.428;8.378;2023-04-10T03:00:10;8.48;;;5.88;;
64854;SDS011;51321;50.428;8.378;2023-04-10T03:03:18;10.85;;;6.78;;
64854;SDS011;51321;50.428;8.378;2023-04-10T03:06:04;10.63;;;5.90;;
64854;SDS011;51321;50.428;8.378;2023-04-10T03:08:49;8.65;;;6.00;;
64854;SDS011;51321;50.428;8.378;2023-04-10T03:11:30;7.75;;;5.30;;
64854;SDS011;51321;50.428;8.378;2023-04-10T03:14:12;7.63;;;5.57;;
64854;SDS011;51321;50.428;8.378;2023-04-10T03:16:54;8.52;;;6.25;;
64854;SDS011;51321;50.428;8.378;2023-04-10T03:19:37;9.52;;;6.05;;
64854;SDS011;51321;50.428;8.378;2023-04-10T03:22:23;8.65;;;6.55;;
64854;SDS011;51321;50.428;8.378;2023-04-10T03:25:08;8.35;;;5.90;;
64854;SDS011;51321;50.428;8.378;2023-04-10T03:27:49;9.25;;;6.53;;
64854;SDS011;51321;50.428;8.378;2023-04-10T03:30:30;9.32;;;6.20;;
64854;SDS011;51321;50.428;8.378;2023-04-10T03:33:13;7.32;;;5.75;;
64854;SDS011;51321;50.428;8.378;2023-04-10T03:35:55;8.45;;;6.53;;
64854;SDS011;51321;50.428;8.378;2023-04-10T03:38:36;7.90;;;6.05;;
64854;SDS011;51321;50.428;8.378;2023-04-10T03:41:21;6.78;;;4.78;;
64854;SDS011;51321;50.428;8.378;2023-04-10T03:44:04;7.75;;;5.97;;
64854;SDS011;51321;50.428;8.378;2023-04-10T03:46:45;7.53;;;5.68;;
64854;SDS011;51321;50.428;8.378;2023-04-10T03:49:26;8.38;;;5.63;;
64854;SDS011;51321;50.428;8.378;2023-04-10T03:52:14;6.93;;;5.30;;
64854;SDS011;51321;50.428;8.378;2023-04-10T03:54:55;9.60;;;6.40;;
64854;SDS011;51321;50.428;8.378;2023-04-10T03:57:41;8.18;;;5.70;;
64854;SDS011;51321;50.428;8.378;2023-04-10T04:00:23;6.40;;;5.43;;
64854;SDS011;51321;50.428;8.378;2023-04-10T04:03:12;6.47;;;5.18;;
64854;SDS011;51321;50.428;8.378;2023-04-10T04:06:05;8.23;;;5.43;;
64854;SDS011;51321;50.428;8.378;2023-04-10T04:08:53;7.75;;;5.80;;
64854;SDS011;51321;50.428;8.378;2023-04-10T04:15:01;8.35;;;5.22;;
64854;SDS011;51321;50.428;8.378;2023-04-10T04:18:02;8.52;;;5.88;;
64854;SDS011;51321;50.428;8.378;2023-04-10T04:20:48;7.13;;;5.43;;
64854;SDS011;51321;50.428;8.378;2023-04-10T04:23:34;8.57;;;6.18;;
64854;SDS011;51321;50.428;8.378;2023-04-10T04:26:22;9.32;;;6.22;;
64854;SDS011;51321;50.428;8.378;2023-04-10T04:29:23;9.85;;;5.85;;
64854;SDS011;51321;50.428;8.378;2023-04-10T04:32:29;8.70;;;5.80;;
64854;SDS011;51321;50.428;8.378;2023-04-10T04:35:23;10.93;;;6.07;;
64854;SDS011;51321;50.428;8.378;2023-04-10T04:38:31;7.60;;;6.00;;
64854;SDS011;51321;50.428;8.378;2023-04-10T04:41:33;6.82;;;5.57;;
64854;SDS011;51321;50.428;8.378;2023-04-10T04:44:37;9.90;;;6.43;;
64854;SDS011;51321;50.428;8.378;2023-04-10T04:47:47;10.55;;;5.95;;
64854;SDS011;51321;50.428;8.378;2023-04-10T04:50:33;9.75;;;6.38;;
64854;SDS011;51321;50.428;8.378;2023-04-10T04:53:37;7.03;;;5.63;;
64854;SDS011;51321;50.428;8.378;2023-04-10T04:56:24;8.00;;;5.90;;
64854;SDS011;51321;50.428;8.378;2023-04-10T04:59:18;10.07;;;6.13;;
64854;SDS011;51321;50.428;8.378;2023-04-10T05:02:26;9.55;;;6.28;;
64854;SDS011;51321;50.428;8.378;2023-04-10T05:05:16;7.47;;;6.03;;
64854;SDS011;51321;50.428;8.378;2023-04-10T05:08:17;8.35;;;5.88;;
64854;SDS011;51321;50.428;8.378;2023-04-10T05:11:18;8.15;;;6.10;;
64854;SDS011;51321;50.428;8.378;2023-04-10T05:14:25;7.55;;;5.43;;
64854;SDS011;51321;50.428;8.378;2023-04-10T05:17:20;7.72;;;5.95;;
64854;SDS011;51321;50.428;8.378;2023-04-10T05:20:16;7.55;;;6.05;;
64854;SDS011;51321;50.428;8.378;2023-04-10T05:23:14;10.25;;;6.25;;
64854;SDS011;51321;50.428;8.378;2023-04-10T05:26:25;8.25;;;6.70;;
64854;SDS011;51321;50.428;8.378;2023-04-10T05:29:42;8.05;;;6.22;;
64854;SDS011;51321;50.428;8.378;2023-04-10T05:32:49;7.10;;;5.65;;
64854;SDS011;51321;50.428;8.378;2023-04-10T05:35:37;7.07;;;5.47;;
64854;SDS011;51321;50.428;8.378;2023-04-10T05:38:39;7.50;;;5.70;;
64854;SDS011;51321;50.428;8.378;2023-04-10T05:41:28;8.32;;;5.97;;
64854;SDS011;51321;50.428;8.378;2023-04-10T05:44:18;8.07;;;6.15;;
64854;SDS011;51321;50.428;8.378;2023-04-10T05:47:19;8.80;;;6.03;;
64854;SDS011;51321;50.428;8.378;2023-04-10T05:50:13;7.75;;;5.40;;
64854;SDS011;51321;50.428;8.378;2023-04-10T05:53:05;7.82;;;6.10;;
64854;SDS011;51321;50.428;8.378;2023-04-10T05:55:56;9.93;;;6.63;;
64854;SDS011;51321;50.428;8.378;2023-04-10T05:59:06;8.02;;;6.07;;
64854;SDS011;51321;50.428;8.378;2023-04-10T06:02:06;7.93;;;6.13;;
64854;SDS011;51321;50.428;8.378;2023-04-10T06:04:47;7.80;;;6.03;;
64854;SDS011;51321;50.428;8.378;2023-04-10T06:07:29;10.10;;;6.38;;
64854;SDS011;51321;50.428;8.378;2023-04-10T06:10:12;6.60;;;5.70;;
64854;SDS011;51321;50.428;8.378;2023-04-10T06:15:35;8.02;;;6.03;;
64854;SDS011;51321;50.428;8.378;2023-04-10T06:18:16;8.68;;;5.93;;
64854;SDS011;51321;50.428;8.378;2023-04-10T06:20:58;7.93;;;6.38;;
64854;SDS011;51321;50.428;8.378;2023-04-10T06:23:41;8.98;;;6.65;;
64854;SDS011;51321;50.428;8.378;2023-04-10T06:26:24;7.65;;;5.93;;
64854;SDS011;51321;50.428;8.378;2023-04-10T06:29:05;8.50;;;6.28;;
64854;SDS011;51321;50.428;8.378;2023-04-10T06:31:47;7.25;;;5.95;;
64854;SDS011;51321;50.428;8.378;2023-04-10T06:34:29;7.25;;;6.03;;
64854;SDS011;51321;50.428;8.378;2023-04-10T06:37:15;6.82;;;5.57;;
64854;SDS011;51321;50.428;8.378;2023-04-10T06:40:00;9.55;;;6.55;;
64854;SDS011;51321;50.428;8.378;2023-04-10T06:42:44;10.70;;;6.78;;
64854;SDS011;51321;50.428;8.378;2023-04-10T06:45:34;7.82;;;6.30;;
64854;SDS011;51321;50.428;8.378;2023-04-10T06:48:16;7.57;;;6.00;;
64854;SDS011;51321;50.428;8.378;2023-04-10T06:50:58;9.07;;;6.90;;
64854;SDS011;51321;50.428;8.378;2023-04-10T06:53:39;8.07;;;6.65;;
64854;SDS011;51321;50.428;8.378;2023-04-10T06:56:21;10.65;;;7.25;;
64854;SDS011;51321;50.428;8.378;2023-04-10T06:59:05;8.55;;;6.45;;
64854;SDS011;51321;50.428;8.378;2023-04-10T07:01:46;11.50;;;7.38;;
64854;SDS011;51321;50.428;8.378;2023-04-10T07:04:27;8.07;;;6.38;;
64854;SDS011;51321;50.428;8.378;2023-04-10T07:07:08;7.47;;;6.03;;
64854;SDS011;51321;50.428;8.378;2023-04-10T07:09:51;7.82;;;6.60;;
64854;SDS011;51321;50.428;8.378;2023-04-10T07:12:32;7.22;;;6.05;;
64854;SDS011;51321;50.428;8.378;2023-04-10T07:15:14;9.50;;;7.28;;
64854;SDS011;51321;50.428;8.378;2023-04-10T07:17:55;10.88;;;6.60;;
64854;SDS011;51321;50.428;8.378;2023-04-10T07:20:36;7.88;;;6.68;;
64854;SDS011;51321;50.428;8.378;2023-04-10T07:23:18;8.65;;;6.18;;
64854;SDS011;51321;50.428;8.378;2023-04-10T07:25:59;8.85;;;6.78;;
64854;SDS011;51321;50.428;8.378;2023-04-10T07:28:40;8.25;;;7.00;;
64854;SDS011;51321;50.428;8.378;2023-04-10T07:31:23;8.13;;;6.93;;
64854;SDS011;51321;50.428;8.378;2023-04-10T07:34:04;9.13;;;7.05;;
64854;SDS011;51321;50.428;8.378;2023-04-10T07:36:45;8.40;;;6.38;;
64854;SDS011;51321;50.428;8.378;2023-04-10T07:39:26;10.27;;;6.88;;
64854;SDS011;51321;50.428;8.378;2023-04-10T07:42:08;8.25;;;6.55;;
64854;SDS011;51321;50.428;8.378;2023-04-10T07:44:51;8.68;;;6.93;;
64854;SDS011;51321;50.428;8.378;2023-04-10T07:47:35;9.02;;;6.95;;
64854;SDS011;51321;50.428;8.378;2023-04-10T07:50:15;9.73;;;6.38;;
64854;SDS011;51321;50.428;8.378;2023-04-10T07:52:57;6.82;;;5.95;;
64854;SDS011;51321;50.428;8.378;2023-04-10T07:55:42;7.53;;;6.40;;
64854;SDS011;51321;50.428;8.378;2023-04-10T07:58:26;7.22;;;6.38;;
64854;SDS011;51321;50.428;8.378;2023-04-10T08:01:07;7.53;;;6.10;;
64854;SDS011;51321;50.428;8.378;2023-04-10T08:03:50;7.78;;;6.53;;
64854;SDS011;51321;50.428;8.378;2023-04-10T08:09:13;6.65;;;5.95;;
64854;SDS011;51321;50.428;8.378;2023-04-10T08:11:54;6.43;;;5.65;;
64854;SDS011;51321;50.428;8.378;2023-04-10T08:14:37;7.78;;;6.57;;
64854;SDS011;51321;50.428;8.378;2023-04-10T08:17:19;8.05;;;6.82;;
64854;SDS011;51321;50.428;8.378;2023-04-10T08:20:01;8.05;;;6.60;;
64854;SDS011;51321;50.428;8.378;2023-04-10T08:22:43;7.75;;;6.75;;
64854;SDS011;51321;50.428;8.378;2023-04-10T08:28:07;7.28;;;6.20;;
64854;SDS011;51321;50.428;8.378;2023-04-10T08:30:51;9.00;;;6.00;;
64854;SDS011;51321;50.428;8.378;2023-04-10T08:33:32;7.18;;;6.28;;
64854;SDS011;51321;50.428;8.378;2023-04-10T08:36:15;7.60;;;6.80;;
64854;SDS011;51321;50.428;8.378;2023-04-10T08:38:56;6.63;;;5.90;;
64854;SDS011;51321;50.428;8.378;2023-04-10T08:41:39;7.47;;;6.67;;
64854;SDS011;51321;50.428;8.378;2023-04-10T08:44:20;6.82;;;6.13;;
64854;SDS011;51321;50.428;8.378;2023-04-10T08:47:01;7.55;;;6.30;;
64854;SDS011;51321;50.428;8.378;2023-04-10T08:49:45;5.80;;;5.18;;
64854;SDS011;51321;50.428;8.378;2023-04-10T08:52:37;6.82;;;5.05;;
64854;SDS011;51321;50.428;8.378;2023-04-10T08:55:23;7.20;;;6.50;;
64854;SDS011;51321;50.428;8.378;2023-04-10T08:58:09;7.00;;;5.82;;
64854;SDS011;51321;50.428;8.378;2023-04-10T09:00:51;6.25;;;5.20;;
64854;SDS011;51321;50.428;8.378;2023-04-10T09:03:32;6.43;;;5.03;;
64854;SDS011;51321;50.428;8.378;2023-04-10T09:06:14;6.20;;;5.50;;
64854;SDS011;51321;50.428;8.378;2023-04-10T09:08:58;5.57;;;4.90;;
64854;SDS011;51321;50.428;8.378;2023-04-10T09:11:56;6.20;;;5.60;;
64854;SDS011;51321;50.428;8.378;2023-04-10T09:14:42;5.55;;;4.97;;
64854;SDS011;51321;50.428;8.378;2023-04-10T09:17:23;6.13;;;4.97;;
64854;SDS011;51321;50.428;8.378;2023-04-10T09:20:04;6.68;;;4.72;;
64854;SDS011;51321;50.428;8.378;2023-04-10T09:23:01;5.78;;;5.18;;
64854;SDS011;51321;50.428;8.378;2023-04-10T09:26:01;5.65;;;5.05;;
64854;SDS011;51321;50.428;8.378;2023-04-10T09:29:01;5.50;;;4.85;;
64854;SDS011;51321;50.428;8.378;2023-04-10T09:31:43;7.15;;;5.35;;
64854;SDS011;51321;50.428;8.378;2023-04-10T09:34:25;6.00;;;5.13;;
64854;SDS011;51321;50.428;8.378;2023-04-10T09:37:07;6.38;;;5.75;;
64854;SDS011;51321;50.428;8.378;2023-04-10T09:39:51;5.88;;;5.28;;
64854;SDS011;51321;50.428;8.378;2023-04-10T09:45:28;6.15;;;5.28;;
64854;SDS011;51321;50.428;8.378;2023-04-10T09:48:26;5.70;;;5.10;;
64854;SDS011;51321;50.428;8.378;2023-04-10T09:51:07;6.00;;;5.40;;
64854;SDS011;51321;50.428;8.378;2023-04-10T09:54:07;6.03;;;4.72;;
64854;SDS011;51321;50.428;8.378;2023-04-10T09:56:48;6.10;;;5.50;;
64854;SDS011;51321;50.428;8.378;2023-04-10T09:59:29;8.07;;;5.13;;
64854;SDS011;51321;50.428;8.378;2023-04-10T10:02:13;8.77;;;5.57;;
64854;SDS011;51321;50.428;8.378;2023-04-10T10:04:56;7.93;;;6.28;;
64854;SDS011;51321;50.428;8.378;2023-04-10T10:07:41;6.68;;;5.97;;
64854;SDS011;51321;50.428;8.378;2023-04-10T10:10:23;8.25;;;6.65;;
64854;SDS011;51321;50.428;8.378;2023-04-10T10:13:05;5.45;;;4.95;;
64854;SDS011;51321;50.428;8.378;2023-04-10T10:15:51;7.35;;;6.10;;
64854;SDS011;51321;50.428;8.378;2023-04-10T10:18:41;6.57;;;5.88;;
64854;SDS011;51321;50.428;8.378;2023-04-10T10:21:24;7.20;;;5.50;;
64854;SDS011;51321;50.428;8.378;2023-04-10T10:24:08;6.82;;;5.85;;
64854;SDS011;51321;50.428;8.378;2023-04-10T10:26:49;7.10;;;6.40;;
64854;SDS011;51321;50.428;8.378;2023-04-10T10:29:31;6.18;;;5.57;;
64854;SDS011;51321;50.428;8.378;2023-04-10T10:32:14;6.82;;;6.13;;
64854;SDS011;51321;50.428;8.378;2023-04-10T10:34:57;5.40;;;4.90;;
64854;SDS011;51321;50.428;8.378;2023-04-10T10:37:40;5.30;;;4.80;;
64854;SDS011;51321;50.428;8.378;2023-04-10T10:43:10;4.35;;;3.95;;
64854;SDS011;51321;50.428;8.378;2023-04-10T10:45:57;7.13;;;4.68;;
64854;SDS011;51321;50.428;8.378;2023-04-10T10:48:53;5.10;;;4.43;;
64854;SDS011;51321;50.428;8.378;2023-04-10T10:51:43;5.78;;;4.63;;
64854;SDS011;51321;50.428;8.378;2023-04-10T10:54:29;4.55;;;4.13;;
64854;SDS011;51321;50.428;8.378;2023-04-10T11:03:59;5.03;;;4.38;;
64854;SDS011;51321;50.428;8.378;2023-04-10T11:06:50;7.30;;;3.92;;
64854;SDS011;51321;50.428;8.378;2023-04-10T11:12:25;15.32;;;11.18;;
64854;SDS011;51321;50.428;8.378;2023-04-10T11:15:06;7.80;;;4.78;;
64854;SDS011;51321;50.428;8.378;2023-04-10T11:17:48;5.53;;;3.72;;
64854;SDS011;51321;50.428;8.378;2023-04-10T11:20:32;3.97;;;3.50;;
64854;SDS011;51321;50.428;8.378;2023-04-10T11:24:01;5.35;;;3.70;;
64854;SDS011;51321;50.428;8.378;2023-04-10T11:26:43;3.53;;;3.22;;
64854;SDS011;51321;50.428;8.378;2023-04-10T11:29:32;4.60;;;3.25;;
64854;SDS011;51321;50.428;8.378;2023-04-10T11:32:13;3.78;;;3.35;;
64854;SDS011;51321;50.428;8.378;2023-04-10T11:34:55;4.03;;;3.05;;
64854;SDS011;51321;50.428;8.378;2023-04-10T11:37:36;4.00;;;3.20;;
64854;SDS011;51321;50.428;8.378;2023-04-10T11:40:18;3.38;;;3.05;;
64854;SDS011;51321;50.428;8.378;2023-04-10T11:43:10;3.72;;;3.25;;
64854;SDS011;51321;50.428;8.378;2023-04-10T11:45:58;3.20;;;2.87;;
64854;SDS011;51321;50.428;8.378;2023-04-10T11:48:39;3.10;;;2.70;;
64854;SDS011;51321;50.428;8.378;2023-04-10T11:51:20;3.35;;;3.05;;
64854;SDS011;51321;50.428;8.378;2023-04-10T11:54:06;3.55;;;3.25;;
64854;SDS011;51321;50.428;8.378;2023-04-10T11:56:56;4.38;;;3.33;;
64854;SDS011;51321;50.428;8.378;2023-04-10T11:59:39;3.45;;;3.00;;
64854;SDS011;51321;50.428;8.378;2023-04-10T12:02:20;3.80;;;3.08;;
64854;SDS011;51321;50.428;8.378;2023-04-10T12:05:02;4.78;;;3.33;;
64854;SDS011;51321;50.428;8.378;2023-04-10T12:07:44;4.25;;;3.22;;
64854;SDS011;51321;50.428;8.378;2023-04-10T12:10:26;3.88;;;3.15;;
64854;SDS011;51321;50.428;8.378;2023-04-10T12:13:16;3.47;;;3.17;;
64854;SDS011;51321;50.428;8.378;2023-04-10T12:16:05;4.45;;;3.20;;
64854;SDS011;51321;50.428;8.378;2023-04-10T12:18:47;3.60;;;2.95;;
64854;SDS011;51321;50.428;8.378;2023-04-10T12:24:11;3.47;;;2.80;;
64854;SDS011;51321;50.428;8.378;2023-04-10T12:26:52;3.28;;;2.72;;
64854;SDS011;51321;50.428;8.378;2023-04-10T12:29:35;5.80;;;2.80;;
64854;SDS011;51321;50.428;8.378;2023-04-10T12:34:57;3.15;;;2.72;;
64854;SDS011;51321;50.428;8.378;2023-04-10T12:40:27;4.22;;;2.85;;
64854;SDS011;51321;50.428;8.378;2023-04-10T12:43:08;3.92;;;3.33;;
64854;SDS011;51321;50.428;8.378;2023-04-10T12:45:50;3.17;;;2.85;;
64854;SDS011;51321;50.428;8.378;2023-04-10T12:48:31;5.40;;;3.25;;
64854;SDS011;51321;50.428;8.378;2023-04-10T12:51:12;2.55;;;2.35;;
64854;SDS011;51321;50.428;8.378;2023-04-10T12:53:53;2.75;;;2.30;;
64854;SDS011;51321;50.428;8.378;2023-04-10T12:56:40;2.35;;;1.85;;
64854;SDS011;51321;50.428;8.378;2023-04-10T12:59:22;1.67;;;1.58;;
64854;SDS011;51321;50.428;8.378;2023-04-10T13:02:04;1.05;;;0.93;;
64854;SDS011;51321;50.428;8.378;2023-04-10T13:07:27;1.20;;;0.93;;
64854;SDS011;51321;50.428;8.378;2023-04-10T13:10:08;0.95;;;0.77;;
64854;SDS011;51321;50.428;8.378;2023-04-10T13:12:49;1.20;;;1.02;;
64854;SDS011;51321;50.428;8.378;2023-04-10T13:15:30;2.35;;;1.05;;
64854;SDS011;51321;50.428;8.378;2023-04-10T13:18:15;1.00;;;0.85;;
64854;SDS011;51321;50.428;8.378;2023-04-10T13:20:56;1.65;;;1.13;;
64854;SDS011;51321;50.428;8.378;2023-04-10T13:23:37;0.65;;;0.60;;
64854;SDS011;51321;50.428;8.378;2023-04-10T13:26:22;1.40;;;0.98;;
64854;SDS011;51321;50.428;8.378;2023-04-10T13:29:03;1.35;;;1.02;;
64854;SDS011;51321;50.428;8.378;2023-04-10T13:31:44;1.40;;;1.00;;
64854;SDS011;51321;50.428;8.378;2023-04-10T13:34:26;1.30;;;1.00;;
64854;SDS011;51321;50.428;8.378;2023-04-10T13:37:07;0.98;;;0.80;;
64854;SDS011;51321;50.428;8.378;2023-04-10T13:39:50;2.35;;;1.00;;
64854;SDS011;51321;50.428;8.378;2023-04-10T13:42:32;1.30;;;1.10;;
64854;SDS011;51321;50.428;8.378;2023-04-10T13:45:14;1.40;;;1.10;;
64854;SDS011;51321;50.428;8.378;2023-04-10T13:47:55;1.92;;;1.30;;
64854;SDS011;51321;50.428;8.378;2023-04-10T13:50:38;1.10;;;1.00;;
64854;SDS011;51321;50.428;8.378;2023-04-10T13:53:19;1.65;;;0.98;;
64854;SDS011;51321;50.428;8.378;2023-04-10T13:56:00;1.13;;;0.90;;
64854;SDS011;51321;50.428;8.378;2023-04-10T13:58:41;1.60;;;1.10;;
64854;SDS011;51321;50.428;8.378;2023-04-10T14:01:22;1.67;;;1.20;;
64854;SDS011;51321;50.428;8.378;2023-04-10T14:04:02;1.40;;;1.10;;
64854;SDS011;51321;50.428;8.378;2023-04-10T14:06:45;1.77;;;1.10;;
64854;SDS011;51321;50.428;8.378;2023-04-10T14:09:28;1.80;;;1.40;;
64854;SDS011;51321;50.428;8.378;2023-04-10T14:12:10;1.50;;;1.10;;
64854;SDS011;51321;50.428;8.378;2023-04-10T14:14:54;1.50;;;1.10;;
64854;SDS011;51321;50.428;8.378;2023-04-10T14:17:35;4.63;;;1.02;;
64854;SDS011;51321;50.428;8.378;2023-04-10T14:20:16;1.92;;;1.20;;
64854;SDS011;51321;50.428;8.378;2023-04-10T14:22:59;1.80;;;1.13;;
64854;SDS011;51321;50.428;8.378;2023-04-10T14:25:40;1.25;;;1.05;;
64854;SDS011;51321;50.428;8.378;2023-04-10T14:28:21;1.77;;;1.17;;
64854;SDS011;51321;50.428;8.378;2023-04-10T14:31:03;1.05;;;0.90;;
64854;SDS011;51321;50.428;8.378;2023-04-10T14:33:44;1.55;;;1.33;;
64854;SDS011;51321;50.428;8.378;2023-04-10T14:36:26;1.20;;;0.93;;
64854;SDS011;51321;50.428;8.378;2023-04-10T14:39:08;1.40;;;1.10;;
64854;SDS011;51321;50.428;8.378;2023-04-10T14:41:51;1.45;;;1.20;;
64854;SDS011;51321;50.428;8.378;2023-04-10T14:44:32;1.65;;;1.30;;
64854;SDS011;51321;50.428;8.378;2023-04-10T14:47:13;1.73;;;1.30;;
64854;SDS011;51321;50.428;8.378;2023-04-10T14:49:55;1.63;;;1.35;;
64854;SDS011;51321;50.428;8.378;2023-04-10T14:52:36;1.40;;;1.30;;
64854;SDS011;51321;50.428;8.378;2023-04-10T14:55:19;1.83;;;1.40;;
64854;SDS011;51321;50.428;8.378;2023-04-10T14:58:00;2.08;;;1.45;;
64854;SDS011;51321;50.428;8.378;2023-04-10T15:00:41;4.30;;;1.50;;
64854;SDS011;51321;50.428;8.378;2023-04-10T15:03:22;2.75;;;1.25;;
64854;SDS011;51321;50.428;8.378;2023-04-10T15:06:03;1.90;;;1.60;;
64854;SDS011;51321;50.428;8.378;2023-04-10T15:08:46;2.45;;;1.10;;
64854;SDS011;51321;50.428;8.378;2023-04-10T15:11:28;1.85;;;1.30;;
64854;SDS011;51321;50.428;8.378;2023-04-10T15:14:10;2.33;;;1.40;;
64854;SDS011;51321;50.428;8.378;2023-04-10T15:16:51;1.60;;;1.45;;
64854;SDS011;51321;50.428;8.378;2023-04-10T15:19:32;1.52;;;1.33;;
64854;SDS011;51321;50.428;8.378;2023-04-10T15:22:13;1.92;;;1.25;;
64854;SDS011;51321;50.428;8.378;2023-04-10T15:24:54;1.90;;;1.40;;
64854;SDS011;51321;50.428;8.378;2023-04-10T15:27:39;2.95;;;1.90;;
64854;SDS011;51321;50.428;8.378;2023-04-10T15:30:20;1.98;;;1.42;;
64854;SDS011;51321;50.428;8.378;2023-04-10T15:33:01;2.00;;;1.27;;
64854;SDS011;51321;50.428;8.378;2023-04-10T15:35:45;1.83;;;1.50;;
64854;SDS011;51321;50.428;8.378;2023-04-10T15:38:28;1.73;;;1.23;;
64854;SDS011;51321;50.428;8.378;2023-04-10T15:41:10;3.47;;;1.33;;
64854;SDS011;51321;50.428;8.378;2023-04-10T15:43:54;1.30;;;0.90;;
64854;SDS011;51321;50.428;8.378;2023-04-10T15:46:35;1.40;;;1.10;;
64854;SDS011;51321;50.428;8.378;2023-04-10T15:49:16;1.67;;;1.40;;
64854;SDS011;51321;50.428;8.378;2023-04-10T15:51:57;2.10;;;1.60;;
64854;SDS011;51321;50.428;8.378;2023-04-10T15:54:38;3.35;;;1.55;;
64854;SDS011;51321;50.428;8.378;2023-04-10T15:57:19;2.22;;;1.65;;
64854;SDS011;51321;50.428;8.378;2023-04-10T16:00:08;1.70;;;1.35;;
64854;SDS011;51321;50.428;8.378;2023-04-10T16:02:50;2.42;;;1.92;;
64854;SDS011;51321;50.428;8.378;2023-04-10T16:05:31;2.00;;;1.50;;
64854;SDS011;51321;50.428;8.378;2023-04-10T16:08:13;2.33;;;1.67;;
64854;SDS011;51321;50.428;8.378;2023-04-10T16:10:54;2.28;;;1.50;;
64854;SDS011;51321;50.428;8.378;2023-04-10T16:13:35;3.17;;;2.38;;
64854;SDS011;51321;50.428;8.378;2023-04-10T16:16:18;1.80;;;1.55;;
64854;SDS011;51321;50.428;8.378;2023-04-10T16:18:59;5.97;;;3.97;;
64854;SDS011;51321;50.428;8.378;2023-04-10T16:21:40;2.03;;;1.67;;
64854;SDS011;51321;50.428;8.378;2023-04-10T16:24:22;3.92;;;1.55;;
64854;SDS011;51321;50.428;8.378;2023-04-10T16:27:03;1.50;;;1.35;;
64854;SDS011;51321;50.428;8.378;2023-04-10T16:29:46;1.65;;;1.30;;
64854;SDS011;51321;50.428;8.378;2023-04-10T16:32:28;1.80;;;1.50;;
64854;SDS011;51321;50.428;8.378;2023-04-10T16:35:09;1.63;;;1.27;;
64854;SDS011;51321;50.428;8.378;2023-04-10T16:37:52;2.20;;;1.40;;
64854;SDS011;51321;50.428;8.378;2023-04-10T16:40:32;1.80;;;1.30;;
64854;SDS011;51321;50.428;8.378;2023-04-10T16:43:15;2.53;;;1.17;;
64854;SDS011;51321;50.428;8.378;2023-04-10T16:45:56;1.88;;;1.40;;
64854;SDS011;51321;50.428;8.378;2023-04-10T16:48:40;2.08;;;1.35;;
64854;SDS011;51321;50.428;8.378;2023-04-10T16:54:03;1.80;;;1.25;;
64854;SDS011;51321;50.428;8.378;2023-04-10T16:56:44;2.88;;;1.27;;
64854;SDS011;51321;50.428;8.378;2023-04-10T16:59:25;1.70;;;1.20;;
64854;SDS011;51321;50.428;8.378;2023-04-10T17:02:06;1.80;;;1.25;;
64854;SDS011;51321;50.428;8.378;2023-04-10T17:04:48;1.52;;;1.20;;
64854;SDS011;51321;50.428;8.378;2023-04-10T17:07:29;1.38;;;1.25;;
64854;SDS011;51321;50.428;8.378;2023-04-10T17:10:11;1.40;;;1.25;;
64854;SDS011;51321;50.428;8.378;2023-04-10T17:12:52;1.50;;;1.10;;
64854;SDS011;51321;50.428;8.378;2023-04-10T17:15:35;2.90;;;1.60;;
64854;SDS011;51321;50.428;8.378;2023-04-10T17:18:16;2.50;;;0.93;;
64854;SDS011;51321;50.428;8.378;2023-04-10T17:20:59;2.63;;;1.13;;